Time;durP1;ratioP1;P1;durP2;ratioP2;P2;SDS_P1;SDS_P2;PMS_P1;PMS_P2;Temp;Humidity;BMP_temperature;BMP_pressure;BME280_temperature;BME280_humidity;BME280_pressure;Samples;Min_cycle;Max_cycle;Signal;HPM_P1;HPM_P2
2024/04/19 00:00:25;;;;;;;0.50;0.50;;;;;;;6.37;100.00;98196.78;5477778;26;20029;-87
2024/04/19 00:02:51;;;;;;;0.52;0.52;;;;;;;6.19;100.00;98161.03;5478076;26;20005;-88
2024/04/19 00:05:17;;;;;;;0.25;0.25;;;;;;;6.34;100.00;98213.56;5480596;26;20003;-88
2024/04/19 00:07:43;;;;;;;0.45;0.45;;;;;;;6.41;100.00;98206.38;5513110;26;20006;-90
2024/04/19 00:10:09;;;;;;;0.52;0.52;;;;;;;6.34;100.00;98216.19;5478422;26;20017;-88
2024/04/19 00:12:35;;;;;;;0.60;0.60;;;;;;;6.70;100.00;98205.81;5479629;26;20017;-88
2024/04/19 00:15:01;;;;;;;0.63;0.63;;;;;;;6.64;100.00;98205.06;5536281;26;20017;-90
2024/04/19 00:17:30;;;;;;;0.80;0.80;;;;;;;6.67;100.00;98203.22;5488677;26;20026;-88
2024/04/19 00:19:56;;;;;;;0.30;0.22;;;;;;;6.38;100.00;98204.69;5521115;26;20010;-88
2024/04/19 00:22:22;;;;;;;0.45;0.45;;;;;;;6.59;100.00;98184.00;5528780;26;20008;-88
2024/04/19 00:24:48;;;;;;;0.60;0.60;;;;;;;6.72;100.00;98189.91;5475174;26;20402;-87
2024/04/19 00:27:14;;;;;;;0.13;0.13;;;;;;;6.37;100.00;98078.81;5478979;26;20001;-88
2024/04/19 00:29:40;;;;;;;0.70;0.70;;;;;;;6.63;100.00;98174.25;5491960;26;20013;-88
2024/04/19 00:32:06;;;;;;;0.40;0.40;;;;;;;6.63;100.00;98116.13;5454655;26;20002;-89
2024/04/19 00:34:35;;;;;;;0.17;0.17;;;;;;;6.93;100.00;98098.72;5432965;26;20078;-88
2024/04/19 00:37:01;;;;;;;0.60;0.35;;;;;;;7.37;100.00;98162.91;5443060;26;20017;-90
2024/04/19 00:39:27;;;;;;;0.32;0.32;;;;;;;6.96;100.00;98066.91;5446068;26;20002;-88
2024/04/19 00:41:53;;;;;;;1.92;0.25;;;;;;;6.99;100.00;98077.44;5437386;26;20002;-89
2024/04/19 00:44:19;;;;;;;0.73;0.52;;;;;;;7.58;100.00;98125.34;5438433;26;20006;-90
2024/04/19 00:46:47;;;;;;;1.13;0.50;;;;;;;7.25;100.00;98038.91;5445481;26;20006;-89
2024/04/19 00:49:13;;;;;;;0.40;0.40;;;;;;;7.24;100.00;98024.81;5454880;26;20035;-88
2024/04/19 00:51:42;;;;;;;1.05;0.30;;;;;;;7.68;100.00;98114.53;5487215;26;20006;-88
2024/04/19 00:54:08;;;;;;;0.40;0.32;;;;;;;7.94;100.00;98154.41;5449437;26;20017;-89
2024/04/19 00:56:35;;;;;;;2.40;1.02;;;;;;;7.20;100.00;98061.06;5469990;26;20855;-89
2024/04/19 00:59:01;;;;;;;0.60;0.60;;;;;;;7.08;100.00;98061.34;5437315;26;19998;-89
2024/04/19 01:01:27;;;;;;;0.90;0.90;;;;;;;7.99;100.00;98184.28;5440453;26;20002;-89
2024/04/19 01:03:55;;;;;;;0.88;0.32;;;;;;;7.08;100.00;98063.13;5469733;26;20010;-89
2024/04/19 01:06:21;;;;;;;4.47;0.63;;;;;;;7.36;100.00;98180.56;5439027;26;20017;-88
2024/04/19 01:08:50;;;;;;;0.95;0.80;;;;;;;7.60;100.00;98168.50;5437611;26;20400;-89
2024/04/19 01:11:15;;;;;;;0.98;0.80;;;;;;;7.66;100.00;98153.41;5435977;26;20007;-88
2024/04/19 01:13:42;;;;;;;0.30;0.30;;;;;;;7.52;100.00;98151.06;5440078;26;20014;-88
2024/04/19 01:16:08;;;;;;;1.50;1.13;;;;;;;7.43;100.00;98175.97;5467816;26;20006;-88
2024/04/19 01:18:34;;;;;;;0.93;0.80;;;;;;;7.57;100.00;98150.06;5440041;26;20017;-87
2024/04/19 01:21:00;;;;;;;6.13;0.95;;;;;;;7.80;100.00;98173.28;5437140;26;19998;-86
2024/04/19 01:23:27;;;;;;;0.20;0.20;;;;;;;6.93;100.00;98086.38;5474452;26;20006;-87
2024/04/19 01:25:57;;;;;;;0.70;0.40;;;;;;;6.92;100.00;98081.13;5443426;26;20006;-87
2024/04/19 01:28:28;;;;;;;0.80;0.80;;;;;;;7.52;100.00;98181.03;5434311;26;20006;-88
2024/04/19 01:30:54;;;;;;;1.48;1.27;;;;;;;6.98;100.00;98132.09;5471932;26;20017;-86
2024/04/19 01:33:20;;;;;;;1.00;1.00;;;;;;;7.43;100.00;98197.16;5468051;26;20812;-87
2024/04/19 01:35:46;;;;;;;1.40;1.30;;;;;;;7.23;100.00;98204.69;5470528;26;20033;-88
2024/04/19 01:38:12;;;;;;;0.50;0.30;;;;;;;6.98;100.00;98103.00;5476025;26;20002;-87
2024/04/19 01:40:38;;;;;;;0.82;0.30;;;;;;;7.45;100.00;98186.53;5477283;26;20345;-88
2024/04/19 01:43:04;;;;;;;0.85;0.85;;;;;;;7.00;100.00;98081.81;5473313;26;20010;-88
2024/04/19 01:45:33;;;;;;;1.83;0.88;;;;;;;7.08;100.00;98129.22;5473654;26;20033;-88
2024/04/19 01:47:59;;;;;;;1.27;0.55;;;;;;;6.69;100.00;98102.78;5471557;26;20006;-88
2024/04/19 01:50:25;;;;;;;0.70;0.43;;;;;;;7.28;100.00;98194.84;5464903;26;20013;-86
2024/04/19 01:52:53;;;;;;;1.00;0.90;;;;;;;7.42;100.00;98195.41;5478405;26;20006;-87
2024/04/19 01:55:19;;;;;;;0.80;0.80;;;;;;;7.45;100.00;98202.41;5475298;26;20002;-86
2024/04/19 01:57:45;;;;;;;0.88;0.88;;;;;;;7.27;100.00;98179.91;5506286;26;20012;-87
2024/04/19 02:00:12;;;;;;;2.38;1.17;;;;;;;6.93;100.00;98107.50;5503502;26;20002;-87
2024/04/19 02:02:40;;;;;;;0.90;0.80;;;;;;;6.81;100.00;98073.47;5513728;26;20014;-87
2024/04/19 02:05:06;;;;;;;0.75;0.70;;;;;;;7.29;100.00;98193.97;5479892;26;20079;-87
2024/04/19 02:07:32;;;;;;;0.82;0.68;;;;;;;7.71;100.00;98230.88;5516809;26;20005;-87
2024/04/19 02:09:58;;;;;;;0.57;0.57;;;;;;;7.54;100.00;98234.78;5508320;26;20034;-86
2024/04/19 02:12:24;;;;;;;0.65;0.40;;;;;;;7.09;100.00;98189.09;5473548;26;20005;-88
2024/04/19 02:14:51;;;;;;;0.60;0.60;;;;;;;7.04;100.00;98178.66;5503784;26;20017;-88
2024/04/19 02:17:17;;;;;;;0.85;0.85;;;;;;;7.18;100.00;98234.75;5476753;26;19998;-88
2024/04/19 02:19:45;;;;;;;0.65;0.32;;;;;;;7.21;100.00;98220.56;5509334;26;20411;-88
2024/04/19 02:22:11;;;;;;;0.65;0.32;;;;;;;7.20;100.00;98232.94;5482307;26;20014;-88
2024/04/19 02:24:37;;;;;;;0.90;0.82;;;;;;;7.26;100.00;98237.19;5506974;26;20002;-88
2024/04/19 02:27:06;;;;;;;1.00;1.00;;;;;;;6.85;100.00;98209.03;5472798;26;20457;-88
2024/04/19 02:32:58;;;;;;;2.35;1.90;;;;;;;7.00;100.00;98235.13;5554499;25;20416;-87
2024/04/19 02:35:24;;;;;;;1.38;1.15;;;;;;;7.03;100.00;98236.84;5501325;25;20005;-88
2024/04/19 02:37:50;;;;;;;1.48;1.05;;;;;;;6.97;100.00;98237.84;5496334;25;20017;-88
2024/04/19 02:40:16;;;;;;;1.00;1.00;;;;;;;6.95;100.00;98207.94;5491124;25;20103;-87
2024/04/19 02:42:42;;;;;;;1.02;0.70;;;;;;;6.99;100.00;98202.53;5494433;25;20006;-88
2024/04/19 02:45:07;;;;;;;0.85;0.82;;;;;;;7.05;100.00;98212.13;5494864;25;20001;-87
2024/04/19 02:47:36;;;;;;;0.70;0.70;;;;;;;7.14;100.00;98235.72;5494021;25;20009;-87
2024/04/19 02:50:05;;;;;;;1.42;0.82;;;;;;;7.31;100.00;98219.47;5493449;25;20024;-88
2024/04/19 02:52:30;;;;;;;0.80;0.80;;;;;;;7.56;100.00;98219.75;5526960;25;20005;-88
2024/04/19 02:54:56;;;;;;;1.55;1.15;;;;;;;7.69;100.00;98233.56;5494322;25;20005;-88
2024/04/19 02:57:22;;;;;;;0.70;0.65;;;;;;;7.79;100.00;98235.09;5490784;25;20009;-89
2024/04/19 02:59:48;;;;;;;0.65;0.65;;;;;;;7.64;100.00;98213.44;5499941;25;20509;-89
2024/04/19 03:02:14;;;;;;;1.27;1.17;;;;;;;7.64;100.00;98247.81;5488808;25;20074;-89
2024/04/19 03:04:41;;;;;;;1.75;0.60;;;;;;;6.90;100.00;98130.53;5498289;25;20469;-88
2024/04/19 03:07:12;;;;;;;1.00;0.90;;;;;;;6.76;100.00;98107.03;5492307;25;20009;-88
2024/04/19 03:09:38;;;;;;;1.10;1.00;;;;;;;7.09;100.00;98136.22;5521479;25;20021;-89
2024/04/19 03:12:05;;;;;;;1.15;1.08;;;;;;;6.54;100.00;98096.94;5521434;25;20005;-89
2024/04/19 03:14:31;;;;;;;0.82;0.82;;;;;;;7.22;100.00;98182.63;5498762;25;20017;-89
2024/04/19 03:16:57;;;;;;;0.52;0.22;;;;;;;7.54;100.00;98221.56;5490801;25;20413;-89
2024/04/19 03:19:23;;;;;;;0.77;0.68;;;;;;;7.27;100.00;98171.97;5523113;25;20002;-89
2024/04/19 03:21:49;;;;;;;2.67;0.98;;;;;;;6.90;100.00;98120.81;5491855;25;20010;-90
2024/04/19 03:24:18;;;;;;;2.38;1.10;;;;;;;7.48;100.00;98227.03;5501161;25;20006;-89
2024/04/19 03:26:45;;;;;;;1.23;0.70;;;;;;;7.50;100.00;98227.81;5493255;25;20006;-88
2024/04/19 03:29:11;;;;;;;0.93;0.93;;;;;;;7.60;100.00;98255.81;5526536;25;20005;-88
2024/04/19 03:31:37;;;;;;;1.33;1.17;;;;;;;7.41;100.00;98263.31;5528811;25;20023;-88
2024/04/19 03:34:03;;;;;;;1.45;1.35;;;;;;;6.67;100.00;98166.22;5522143;25;20012;-87
2024/04/19 03:36:29;;;;;;;2.50;1.25;;;;;;;6.77;100.00;98288.47;5487697;25;20643;-88
2024/04/19 03:38:54;;;;;;;1.13;1.02;;;;;;;6.76;100.00;98263.78;5497091;25;20017;-88
2024/04/19 03:41:24;;;;;;;3.72;1.58;;;;;;;6.59;100.00;98279.09;5521813;25;19998;-88
2024/04/19 03:46:35;;;;;;;3.78;1.23;;;;;;;6.37;100.00;98242.53;5477814;26;20021;-89
2024/04/19 03:49:01;;;;;;;1.48;1.05;;;;;;;6.85;100.00;98267.16;5507498;26;20894;-89
2024/04/19 03:51:27;;;;;;;1.20;1.05;;;;;;;7.06;100.00;98287.88;5480596;26;20092;-88
2024/04/19 03:53:53;;;;;;;2.05;1.17;;;;;;;7.20;100.00;98296.41;5514130;26;20001;-88
2024/04/19 03:56:19;;;;;;;0.95;0.60;;;;;;;6.73;100.00;98255.09;5509413;26;20324;-88
2024/04/19 03:58:48;;;;;;;2.80;1.02;;;;;;;6.30;100.00;98200.44;5504420;26;20473;-88
2024/04/19 04:01:14;;;;;;;0.85;0.80;;;;;;;6.98;100.00;98309.19;5479436;26;21114;-86
2024/04/19 04:03:40;;;;;;;1.45;1.00;;;;;;;7.04;100.00;98307.31;5511658;26;20457;-87
2024/04/19 04:06:06;;;;;;;1.10;0.82;;;;;;;7.12;100.00;98311.56;5514933;26;20009;-88
2024/04/19 04:08:32;;;;;;;1.77;1.27;;;;;;;7.15;100.00;98305.31;5479448;26;20506;-88
2024/04/19 04:11:00;;;;;;;0.73;0.40;;;;;;;6.99;100.00;98273.06;5483695;26;20361;-88
2024/04/19 04:13:26;;;;;;;1.13;1.02;;;;;;;7.24;100.00;98307.75;5511562;26;20017;-88
2024/04/19 04:15:55;;;;;;;1.50;1.17;;;;;;;7.23;100.00;98324.56;5487134;26;20030;-88
2024/04/19 04:18:21;;;;;;;0.98;0.57;;;;;;;7.22;100.00;98332.50;5477794;26;20398;-88
2024/04/19 04:20:47;;;;;;;2.13;0.98;;;;;;;7.16;100.00;98322.94;5504456;26;20073;-88
2024/04/19 04:23:13;;;;;;;0.93;0.93;;;;;;;7.12;100.00;98342.41;5475913;26;20005;-88
2024/04/19 04:25:40;;;;;;;3.50;1.20;;;;;;;6.95;100.00;98340.09;5505822;26;20009;-88
2024/04/19 04:28:06;;;;;;;3.45;1.30;;;;;;;7.05;100.00;98346.97;5509488;26;20020;-88
2024/04/19 04:30:32;;;;;;;1.90;1.75;;;;;;;7.01;100.00;98339.97;5477069;26;20037;-88
2024/04/19 04:33:00;;;;;;;2.35;1.08;;;;;;;6.92;100.00;98325.16;5474519;26;20021;-87
2024/04/19 04:35:26;;;;;;;3.33;1.33;;;;;;;7.05;100.00;98361.91;5471070;26;20009;-88
2024/04/19 04:37:52;;;;;;;1.23;1.05;;;;;;;6.90;100.00;98369.25;5475433;26;20001;-88
2024/04/19 04:40:18;;;;;;;1.15;1.00;;;;;;;6.72;100.00;98307.06;5507195;26;20005;-87
2024/04/19 04:42:44;;;;;;;1.15;0.98;;;;;;;6.79;100.00;98337.75;5475277;26;20016;-87
2024/04/19 04:45:10;;;;;;;1.23;0.40;;;;;;;6.82;100.00;98346.53;5506141;26;20414;-88
2024/04/19 04:47:36;;;;;;;1.52;1.42;;;;;;;6.62;100.00;98373.31;5510406;26;20001;-88
2024/04/19 04:50:05;;;;;;;1.50;1.40;;;;;;;6.66;100.00;98381.16;5514291;26;20013;-88
2024/04/19 04:52:31;;;;;;;1.05;0.80;;;;;;;6.84;100.00;98379.09;5477376;26;20002;-88
2024/04/19 04:54:57;;;;;;;3.78;0.98;;;;;;;6.88;100.00;98378.13;5504500;26;20472;-87
2024/04/19 04:57:23;;;;;;;1.30;0.82;;;;;;;6.26;100.00;98309.66;5473570;26;19998;-88
2024/04/19 04:59:49;;;;;;;1.63;1.20;;;;;;;6.80;100.00;98378.25;5514852;26;20013;-88
2024/04/19 05:02:15;;;;;;;1.45;1.35;;;;;;;6.60;100.00;98364.53;5472160;26;19998;-90
2024/04/19 05:04:42;;;;;;;2.38;1.25;;;;;;;6.05;100.00;98290.66;5476054;26;20006;-87
2024/04/19 05:07:11;;;;;;;0.88;0.80;;;;;;;6.46;100.00;98363.00;5482065;26;20073;-88
2024/04/19 05:09:37;;;;;;;1.67;1.30;;;;;;;6.64;100.00;98392.66;5511754;26;20351;-88
2024/04/19 05:12:03;;;;;;;2.15;0.85;;;;;;;6.13;100.00;98301.94;5481373;26;20021;-89
2024/04/19 05:14:29;;;;;;;1.23;1.15;;;;;;;6.65;100.00;98367.97;5512531;26;20020;-88
2024/04/19 05:16:55;;;;;;;1.25;0.93;;;;;;;6.38;100.00;98312.09;5498706;26;20006;-88
2024/04/19 05:19:21;;;;;;;4.20;1.17;;;;;;;6.97;100.00;98378.81;5483917;26;20001;-89
2024/04/19 05:21:47;;;;;;;2.25;0.77;;;;;;;7.11;100.00;98399.72;5505985;26;20021;-89
2024/04/19 05:24:16;;;;;;;2.17;1.33;;;;;;;7.26;100.00;98400.31;5480915;26;20021;-91
2024/04/19 05:26:42;;;;;;;3.47;1.30;;;;;;;7.02;100.00;98370.78;5474654;26;20020;-90
2024/04/19 05:29:10;;;;;;;2.97;1.33;;;;;;;6.51;100.00;98299.53;5508457;26;20337;-89
2024/04/19 05:31:45;;;;;;;1.27;1.17;;;;;;;7.29;100.00;98405.56;5480212;26;20010;-91
2024/04/19 05:34:11;;;;;;;2.28;1.48;;;;;;;7.15;100.00;98376.72;5476754;26;20017;-91
2024/04/19 05:36:37;;;;;;;1.55;1.23;;;;;;;7.54;100.00;98404.13;5481181;26;20089;-92
2024/04/19 05:39:04;;;;;;;1.40;1.15;;;;;;;7.69;100.00;98378.25;5477354;26;20013;-92
2024/04/19 05:41:32;;;;;;;13.48;1.73;;;;;;;7.76;100.00;98374.56;5483514;26;20015;-92
2024/04/19 05:43:58;;;;;;;1.90;1.30;;;;;;;8.02;100.00;98396.03;5475747;26;20021;-91
2024/04/19 05:46:25;;;;;;;3.38;1.27;;;;;;;8.25;100.00;98396.41;5514093;26;20092;-91
2024/04/19 05:48:51;;;;;;;1.95;1.50;;;;;;;8.11;100.00;98314.63;5468319;26;20481;-91
2024/04/19 05:51:17;;;;;;;2.03;1.25;;;;;;;8.65;100.00;98353.91;5468882;26;20017;-92
2024/04/19 05:53:43;;;;;;;1.67;1.58;;;;;;;8.69;100.00;98323.75;5485539;26;20001;-91
2024/04/19 05:56:09;;;;;;;1.77;1.58;;;;;;;9.36;100.00;98405.06;5506026;26;20002;-93
2024/04/19 05:58:37;;;;;;;2.63;1.73;;;;;;;9.29;100.00;98384.94;5474182;26;20005;-91
2024/04/19 06:01:05;;;;;;;2.08;1.65;;;;;;;9.56;100.00;98397.38;5468695;26;20001;-92
2024/04/19 06:03:33;;;;;;;1.95;1.85;;;;;;;8.96;100.00;98265.63;5477112;26;20010;-90
2024/04/19 06:05:59;;;;;;;1.73;1.63;;;;;;;9.60;100.00;98324.72;5477278;26;20065;-92
2024/04/19 06:08:25;;;;;;;1.50;1.00;;;;;;;9.95;100.00;98383.84;5502958;26;20030;-92
2024/04/19 06:10:51;;;;;;;4.20;1.98;;;;;;;9.69;100.00;98344.81;5486663;26;20002;-89
2024/04/19 06:13:17;;;;;;;4.57;1.50;;;;;;;9.80;100.00;98325.88;5508727;26;19998;-91
2024/04/19 06:15:46;;;;;;;3.22;1.60;;;;;;;10.48;100.00;98378.66;5476285;26;20005;-92
2024/04/19 06:18:12;;;;;;;1.42;1.25;;;;;;;10.26;100.00;98332.41;5483681;26;20020;-91
2024/04/19 06:20:40;;;;;;;4.45;1.50;;;;;;;10.36;100.00;98322.38;5474547;26;20034;-92
2024/04/19 06:23:06;;;;;;;5.68;1.95;;;;;;;10.85;100.00;98387.19;5471362;26;20012;-92
2024/04/19 06:25:33;;;;;;;3.30;1.60;;;;;;;10.05;100.00;98323.34;5512297;26;20001;-90
2024/04/19 06:27:59;;;;;;;1.45;1.35;;;;;;;10.93;100.00;98410.84;5475575;26;20006;-91
2024/04/19 06:30:25;;;;;;;3.15;1.30;;;;;;;11.23;100.00;98385.84;5469036;26;20005;-91
2024/04/19 06:32:54;;;;;;;2.38;1.05;;;;;;;11.27;100.00;98394.56;5439998;26;20013;-91
2024/04/19 06:35:21;;;;;;;5.68;1.80;;;;;;;11.29;100.00;98368.78;5431293;26;20009;-91
2024/04/19 06:37:47;;;;;;;2.30;2.08;;;;;;;11.00;100.00;98308.63;5442285;26;20039;-92
2024/04/19 06:40:14;;;;;;;5.53;1.83;;;;;;;11.82;100.00;98423.63;5447845;26;20006;-92
2024/04/19 06:42:40;;;;;;;3.75;1.38;;;;;;;11.91;100.00;98416.19;5440007;26;20026;-91
2024/04/19 06:45:06;;;;;;;2.47;1.95;;;;;;;11.59;100.00;98405.84;5440690;26;20036;-91
2024/04/19 06:47:32;;;;;;;5.00;1.80;;;;;;;12.15;100.00;98426.00;5435383;26;20007;-91
2024/04/19 06:50:01;;;;;;;4.93;1.85;;;;;;;12.00;100.00;98433.63;5475247;26;20007;-91
2024/04/19 06:52:27;;;;;;;3.50;1.92;;;;;;;11.49;100.00;98438.16;5433149;26;20017;-90
2024/04/19 06:54:53;;;;;;;4.22;1.33;;;;;;;11.97;100.00;98452.41;5438675;26;20339;-91
2024/04/19 06:57:19;;;;;;;7.20;2.03;;;;;;;11.69;100.00;98436.56;5436832;26;20007;-91
2024/04/19 06:59:46;;;;;;;1.48;1.10;;;;;;;11.97;100.00;98443.53;5434901;26;20022;-92
2024/04/19 07:02:13;;;;;;;3.08;1.60;;;;;;;11.62;100.00;98406.59;5444242;26;20021;-91
2024/04/19 07:04:39;;;;;;;6.20;1.48;;;;;;;11.96;100.00;98360.06;5434856;26;20015;-91
2024/04/19 07:07:07;;;;;;;4.60;1.80;;;;;;;12.35;100.00;98347.88;5452879;26;20008;-92
2024/04/19 07:09:34;;;;;;;4.32;2.55;;;;;;;12.29;100.00;98412.97;5446441;26;20006;-89
2024/04/19 07:12:00;;;;;;;5.93;1.52;;;;;;;12.43;100.00;98453.28;5482443;26;20033;-90
2024/04/19 07:14:26;;;;;;;2.78;1.40;;;;;;;12.59;100.00;98442.00;5425798;26;20039;-91
2024/04/19 07:16:52;;;;;;;5.35;2.50;;;;;;;12.09;100.00;98422.59;5440153;26;20014;-90
2024/04/19 07:19:18;;;;;;;5.30;1.67;;;;;;;12.38;100.00;98457.06;5448773;26;20770;-90
2024/04/19 07:21:44;;;;;;;2.80;1.75;;;;;;;11.53;100.00;98428.25;5435543;26;20005;-88
2024/04/19 07:24:12;;;;;;;4.07;1.50;;;;;;;12.06;100.00;98459.19;5480769;26;20337;-91
2024/04/19 07:26:39;;;;;;;4.32;1.67;;;;;;;11.55;100.00;98388.25;5467598;26;20007;-91
2024/04/19 07:29:05;;;;;;;3.67;1.25;;;;;;;12.03;100.00;98465.47;5464602;26;20043;-91
2024/04/19 07:31:30;;;;;;;2.08;1.45;;;;;;;12.28;100.00;98453.91;5463832;26;20344;-88
2024/04/19 07:33:56;;;;;;;3.97;1.70;;;;;;;12.60;100.00;98454.41;5512546;26;20454;-90
2024/04/19 07:36:23;;;;;;;2.47;1.50;;;;;;;12.94;100.00;98417.38;5481378;26;20002;-91
2024/04/19 07:38:49;;;;;;;1.92;1.05;;;;;;;13.38;100.00;98442.28;5484838;26;20002;-91
2024/04/19 07:41:18;;;;;;;2.35;1.58;;;;;;;12.78;100.00;98452.81;5520452;26;20016;-90
2024/04/19 07:43:44;;;;;;;;;;;;;;;13.53;100.00;98466.53;5479141;26;20006;-91
2024/04/19 07:46:10;;;;;;;3.40;1.50;;;;;;;13.17;100.00;98439.59;5471933;26;20358;-89
2024/04/19 07:48:36;;;;;;;1.70;1.35;;;;;;;13.30;100.00;98464.00;5485318;26;20037;-90
2024/04/19 07:51:03;;;;;;;3.53;1.88;;;;;;;11.83;100.00;98370.28;5472556;26;20002;-88
2024/04/19 07:53:30;;;;;;;2.47;2.13;;;;;;;12.98;100.00;98458.16;5494364;26;20006;-91
2024/04/19 07:55:56;;;;;;;1.45;1.33;;;;;;;12.56;100.00;98400.31;5493307;26;19998;-90
2024/04/19 07:58:26;;;;;;;2.80;1.40;;;;;;;12.40;100.00;98407.19;5483427;26;20019;-90
2024/04/19 08:00:54;;;;;;;4.45;1.95;;;;;;;11.39;100.00;98402.13;5504256;26;20002;-89
2024/04/19 08:03:20;;;;;;;6.50;1.95;;;;;;;12.32;100.00;98484.84;5504735;26;20024;-88
2024/04/19 08:05:46;;;;;;;3.55;1.88;;;;;;;12.34;100.00;98480.31;5476353;26;20006;-87
2024/04/19 08:08:12;;;;;;;6.60;1.88;;;;;;;11.99;100.00;98495.88;5476745;26;20002;-87
2024/04/19 08:10:38;;;;;;;1.90;0.93;;;;;;;12.10;100.00;98467.00;5514447;26;20414;-89
2024/04/19 08:13:06;;;;;;;2.95;1.75;;;;;;;11.90;100.00;98390.47;5481014;26;20009;-92
2024/04/19 08:15:35;;;;;;;1.70;1.23;;;;;;;13.62;100.00;98475.94;5500461;26;20016;-92
2024/04/19 08:18:01;;;;;;;5.10;1.90;;;;;;;14.24;100.00;98503.44;5481890;26;20086;-91
2024/04/19 08:20:27;;;;;;;2.83;2.08;;;;;;;14.47;97.85;98416.75;5487257;26;20009;-90
2024/04/19 08:22:53;;;;;;;5.72;2.13;;;;;;;13.83;86.91;98492.81;5476717;26;20028;-90
2024/04/19 08:25:19;;;;;;;3.45;1.85;;;;;;;12.65;88.67;98378.59;5476626;26;20937;-91
2024/04/19 08:27:45;;;;;;;2.97;1.58;;;;;;;13.17;85.81;98482.31;5508990;26;20038;-91
2024/04/19 08:30:13;;;;;;;5.13;1.40;;;;;;;12.27;86.01;98430.81;5507328;26;20347;-90
2024/04/19 08:32:42;;;;;;;2.83;1.92;;;;;;;12.31;90.03;98536.41;5472469;26;20006;-89
2024/04/19 08:35:08;;;;;;;1.98;1.02;;;;;;;11.19;91.62;98456.06;5472636;26;20006;-90
2024/04/19 08:37:34;;;;;;;1.73;1.63;;;;;;;12.17;96.37;98534.28;5480081;26;20016;-90
2024/04/19 08:40:00;;;;;;;4.32;1.02;;;;;;;11.55;94.92;98446.84;5507437;26;20012;-90
2024/04/19 08:42:28;;;;;;;2.03;1.85;;;;;;;12.36;99.84;98536.25;5470061;26;20013;-89
2024/04/19 08:44:54;;;;;;;2.25;1.05;;;;;;;11.10;92.99;98435.97;5469121;26;20350;-90
2024/04/19 08:47:21;;;;;;;1.55;1.45;;;;;;;12.14;96.36;98539.72;5470520;26;20007;-90
2024/04/19 08:49:50;;;;;;;2.65;2.45;;;;;;;12.23;94.57;98519.84;5479119;26;20001;-89
2024/04/19 08:52:18;;;;;;;1.90;1.80;;;;;;;12.44;95.06;98412.34;5479915;26;20002;-89
2024/04/19 08:54:44;;;;;;;6.25;1.13;;;;;;;13.00;86.66;98512.34;5473756;26;20815;-88
2024/04/19 08:57:10;;;;;;;3.63;2.65;;;;;;;13.13;89.09;98542.09;5475190;26;20002;-91
2024/04/19 08:59:37;;;;;;;1.50;1.35;;;;;;;12.15;84.47;98484.63;5475221;26;20006;-89
2024/04/19 09:02:03;;;;;;;2.05;1.55;;;;;;;12.25;88.50;98512.66;5508173;26;20006;-89
2024/04/19 09:04:29;;;;;;;6.28;2.03;;;;;;;12.87;88.73;98528.00;5465636;26;20030;-88
2024/04/19 09:06:58;;;;;;;2.55;1.40;;;;;;;13.52;84.79;98538.72;5468756;26;20039;-91
2024/04/19 09:09:26;;;;;;;4.60;2.45;;;;;;;13.81;83.25;98537.44;5463487;26;20018;-90
2024/04/19 09:11:54;;;;;;;1.63;1.50;;;;;;;14.12;81.22;98555.69;5463686;26;20024;-90
2024/04/19 09:14:20;;;;;;;3.28;1.65;;;;;;;14.49;81.94;98550.47;5475421;26;20081;-92
2024/04/19 09:16:47;;;;;;;2.65;1.77;;;;;;;14.53;76.87;98558.28;5467481;26;20009;-89
2024/04/19 09:19:13;;;;;;;3.40;1.77;;;;;;;14.47;75.29;98489.00;5467055;26;20006;-91
2024/04/19 09:21:39;;;;;;;5.32;1.38;;;;;;;14.84;69.37;98551.50;5472729;26;20081;-91
2024/04/19 09:24:09;;;;;;;2.20;2.00;;;;;;;14.51;68.90;98533.41;5507884;26;20001;-88
2024/04/19 09:26:35;;;;;;;1.70;1.48;;;;;;;14.55;71.95;98518.97;5467171;26;20006;-90
2024/04/19 09:29:01;;;;;;;3.08;2.10;;;;;;;14.32;71.21;98481.69;5466045;26;20009;-91
2024/04/19 09:31:27;;;;;;;3.65;1.10;;;;;;;14.22;72.12;98528.50;5472514;26;20365;-92
2024/04/19 09:33:55;;;;;;;1.67;1.45;;;;;;;14.81;70.12;98554.31;5477126;26;20001;-91
2024/04/19 09:36:21;;;;;;;1.85;1.60;;;;;;;14.85;68.45;98530.94;5480071;26;20023;-89
2024/04/19 09:38:47;;;;;;;2.67;1.60;;;;;;;15.15;68.27;98545.50;5514136;26;20835;-90
2024/04/19 09:41:17;;;;;;;2.53;1.77;;;;;;;15.28;69.44;98540.41;5467981;26;20454;-91
2024/04/19 09:43:48;;;;;;;3.80;1.60;;;;;;;14.26;71.26;98549.69;5477216;26;20002;-86
2024/04/19 09:46:18;;;;;;;1.95;1.77;;;;;;;14.14;69.39;98470.06;5503114;26;20474;-93
2024/04/19 09:48:47;;;;;;;5.45;2.05;;;;;;;14.99;67.91;98552.56;5480680;26;20078;-91
2024/04/19 09:51:15;;;;;;;1.58;1.48;;;;;;;14.87;65.63;98553.16;5474022;26;20001;-93
2024/04/19 09:53:44;;;;;;;2.15;1.70;;;;;;;14.65;67.18;98476.56;5505521;26;20006;-89
2024/04/19 09:56:25;;;;;;;5.15;1.85;;;;;;;15.26;65.88;98539.63;5509206;26;20012;-92
2024/04/19 09:58:52;;;;;;;1.98;1.65;;;;;;;14.87;58.26;98508.50;5469904;26;20006;-91
2024/04/19 10:01:19;;;;;;;3.28;1.98;;;;;;;15.43;58.41;98533.41;5467358;26;20017;-91
2024/04/19 10:03:47;;;;;;;1.60;1.50;;;;;;;15.39;53.39;98521.97;5478761;26;20039;-93
2024/04/19 10:06:13;;;;;;;1.95;1.50;;;;;;;15.13;51.11;98458.16;5479212;26;20010;-92
2024/04/19 10:08:40;;;;;;;1.88;1.55;;;;;;;15.53;54.37;98534.69;5480016;26;19997;-94
2024/04/19 10:11:06;;;;;;;2.42;1.65;;;;;;;15.98;52.46;98524.34;5474810;26;20009;-90
2024/04/19 10:13:35;;;;;;;2.10;1.55;;;;;;;16.01;50.03;98543.84;5510233;26;20005;-89
2024/04/19 10:16:01;;;;;;;1.63;1.20;;;;;;;15.35;52.74;98522.22;5470909;26;20001;-92
2024/04/19 10:18:28;;;;;;;11.57;2.83;;;;;;;15.37;51.70;98416.69;5485251;26;20009;-92
2024/04/19 10:20:53;;;;;;;2.80;2.13;;;;;;;16.33;47.85;98529.66;5481909;26;20030;-89
2024/04/19 10:23:20;;;;;;;1.08;0.90;;;;;;;15.95;49.21;98520.03;5476791;26;20744;-91
2024/04/19 10:25:46;;;;;;;2.05;1.67;;;;;;;16.09;46.98;98435.28;5473067;26;20001;-91
2024/04/19 10:28:15;;;;;;;8.73;1.85;;;;;;;16.67;47.60;98447.25;5481276;26;20005;-91
2024/04/19 10:30:44;;;;;;;5.80;1.50;;;;;;;17.17;44.62;98522.25;5476383;26;20012;-92
2024/04/19 10:33:10;;;;;;;3.78;1.30;;;;;;;16.70;43.46;98495.41;5468539;26;20013;-92
2024/04/19 10:35:37;;;;;;;1.50;0.80;;;;;;;16.47;42.84;98510.97;5467547;26;20009;-89
2024/04/19 10:38:04;;;;;;;3.90;1.52;;;;;;;14.59;43.99;98393.91;5513522;26;20469;-90
2024/04/19 10:40:30;;;;;;;1.58;1.48;;;;;;;15.34;42.18;98512.47;5468316;26;20009;-91
2024/04/19 10:43:03;;;;;;;2.33;1.75;;;;;;;14.89;43.73;98522.69;5507022;26;20013;-90
2024/04/19 10:45:30;;;;;;;2.38;1.33;;;;;;;14.37;41.11;98483.19;5476417;26;20110;-88
2024/04/19 10:48:00;;;;;;;1.50;1.40;;;;;;;14.67;42.65;98496.09;5483380;26;20005;-90
2024/04/19 10:50:28;;;;;;;1.13;1.05;;;;;;;14.92;44.33;98506.50;5506105;26;20017;-91
2024/04/19 10:52:54;;;;;;;1.83;1.23;;;;;;;14.08;42.57;98409.69;5477015;26;20005;-91
2024/04/19 10:55:21;;;;;;;1.20;1.10;;;;;;;15.33;42.45;98455.34;5474927;26;20034;-91
2024/04/19 10:57:46;;;;;;;1.23;1.17;;;;;;;16.05;40.52;98469.47;5478566;26;20021;-94
2024/04/19 11:00:13;;;;;;;1.80;1.20;;;;;;;15.81;37.84;98452.88;5479356;26;20033;-94
2024/04/19 11:02:40;;;;;;;2.25;1.52;;;;;;;16.53;38.24;98502.59;5473361;26;20014;-95
2024/04/19 11:05:09;;;;;;;1.08;0.95;;;;;;;16.57;36.91;98495.25;5475482;26;20014;-96
2024/04/19 11:07:36;;;;;;;3.55;1.65;;;;;;;16.22;37.81;98500.72;5482533;26;20001;-91
2024/04/19 11:10:03;;;;;;;1.00;0.80;;;;;;;15.41;38.19;98487.06;5509889;26;20003;-91
2024/04/19 11:12:29;;;;;;;3.60;1.10;;;;;;;14.92;38.93;98479.72;5475534;26;20073;-91
2024/04/19 11:14:57;;;;;;;1.63;1.13;;;;;;;14.95;39.62;98509.00;5470497;26;20009;-90
2024/04/19 11:17:23;;;;;;;1.25;1.20;;;;;;;15.20;38.88;98502.41;5477919;26;20018;-91
2024/04/19 11:19:49;;;;;;;1.17;1.00;;;;;;;15.38;39.15;98501.50;5481227;26;20020;-92
2024/04/19 11:22:18;;;;;;;1.65;1.55;;;;;;;15.47;39.53;98411.75;5481661;26;20002;-91
2024/04/19 11:24:44;;;;;;;1.65;1.55;;;;;;;15.78;39.85;98459.25;5482755;26;20002;-91
2024/04/19 11:27:12;;;;;;;2.03;1.77;;;;;;;16.46;38.49;98474.38;5474236;26;20050;-92
2024/04/19 11:29:38;;;;;;;1.75;1.42;;;;;;;15.93;37.90;98475.47;5476816;26;20002;-90
2024/04/19 11:32:05;;;;;;;4.40;1.10;;;;;;;14.90;39.03;98370.97;5461552;26;20014;-89
2024/04/19 11:34:31;;;;;;;1.42;1.30;;;;;;;15.70;41.31;98476.66;5485998;26;20014;-90